createdAt,value
2016-09-16T00:00:33.437Z,951.11
2016-09-16T00:01:33.452Z,951.09
2016-09-16T00:02:33.430Z,951.1
2016-09-16T00:03:33.425Z,951.07
2016-09-16T00:04:33.426Z,951.1
2016-09-16T00:05:33.416Z,951.11
2016-09-16T00:06:33.414Z,951.1
2016-09-16T00:07:33.410Z,951.1
2016-09-16T00:08:33.404Z,951.08
2016-09-16T00:09:33.399Z,951.11
2016-09-16T00:10:33.450Z,951.15
2016-09-16T00:11:33.393Z,951.12
2016-09-16T00:12:33.387Z,951.09
2016-09-16T00:13:33.383Z,951.09
2016-09-16T00:14:33.385Z,951.12
2016-09-16T00:15:33.372Z,951.09
2016-09-16T00:16:33.369Z,951.12
2016-09-16T00:17:33.363Z,951.11
2016-09-16T00:18:33.361Z,951.12
2016-09-16T00:19:33.355Z,951.1
2016-09-16T00:20:33.356Z,951.12
2016-09-16T00:21:33.352Z,951.13
2016-09-16T00:22:33.344Z,951.13
2016-09-16T00:23:33.342Z,951.1
2016-09-16T00:24:33.336Z,951.07
2016-09-16T00:25:33.335Z,951.09
2016-09-16T00:26:33.340Z,951.12
2016-09-16T00:27:33.323Z,951.09
2016-09-16T00:28:33.371Z,951.06
2016-09-16T00:29:33.315Z,951.06
2016-09-16T00:30:33.312Z,951.07
2016-09-16T00:31:33.308Z,951.08
2016-09-16T00:32:33.312Z,951.05
2016-09-16T00:33:33.299Z,951.04
2016-09-16T00:34:33.304Z,951.06
2016-09-16T00:35:33.294Z,951.05
2016-09-16T00:36:33.290Z,951.04
2016-09-16T00:37:33.281Z,951.07
2016-09-16T00:38:33.276Z,951.04
2016-09-16T00:39:33.274Z,951.08
2016-09-16T00:40:33.272Z,951.08
2016-09-16T00:41:33.275Z,951.1
2016-09-16T00:42:33.263Z,951.07
2016-09-16T00:43:33.258Z,951.07
2016-09-16T00:44:33.262Z,951.12
2016-09-16T00:45:33.249Z,951.11
2016-09-16T00:46:33.248Z,951.11
2016-09-16T00:47:33.244Z,951.12
2016-09-16T00:48:33.297Z,951.15
2016-09-16T00:49:33.234Z,951.12
2016-09-16T00:50:33.242Z,951.14
2016-09-16T00:51:33.230Z,951.16
2016-09-16T00:52:33.230Z,951.2
2016-09-16T00:53:33.219Z,951.18
2016-09-16T00:54:33.216Z,951.22
2016-09-16T00:55:33.210Z,951.22
2016-09-16T00:56:33.207Z,951.21
2016-09-16T00:57:33.204Z,951.21
2016-09-16T00:58:33.204Z,951.21
2016-09-16T00:59:33.197Z,951.2
2016-09-16T01:00:33.197Z,951.17
2016-09-16T01:01:33.190Z,951.21
2016-09-16T01:02:33.188Z,951.19
2016-09-16T01:03:33.183Z,951.18
2016-09-16T01:04:33.379Z,951.21
2016-09-16T01:05:33.203Z,951.2
2016-09-16T01:06:33.185Z,951.22
2016-09-16T01:07:33.164Z,951.24
2016-09-16T01:08:33.164Z,951.22
2016-09-16T01:09:33.159Z,951.23
2016-09-16T01:10:33.156Z,951.19
2016-09-16T01:11:33.152Z,951.22
2016-09-16T01:12:33.146Z,951.2
2016-09-16T01:13:33.141Z,951.23
2016-09-16T01:14:33.137Z,951.23
2016-09-16T01:15:33.143Z,951.25
2016-09-16T01:16:33.133Z,951.26
2016-09-16T01:17:33.127Z,951.23
2016-09-16T01:18:33.132Z,951.27
2016-09-16T01:19:33.124Z,951.25
2016-09-16T01:20:33.123Z,951.27
2016-09-16T01:21:33.115Z,951.27
2016-09-16T01:22:33.117Z,951.27
2016-09-16T01:23:33.105Z,951.23
2016-09-16T01:24:33.116Z,951.25
2016-09-16T01:25:33.097Z,951.26
2016-09-16T01:26:33.096Z,951.28
2016-09-16T01:27:33.104Z,951.29
2016-09-16T01:28:33.087Z,951.28
2016-09-16T01:29:33.083Z,951.29
2016-09-16T01:30:33.089Z,951.31
2016-09-16T01:31:33.074Z,951.32
2016-09-16T01:32:33.068Z,951.32
2016-09-16T01:33:33.074Z,951.31
2016-09-16T01:34:33.061Z,951.33
2016-09-16T01:35:33.057Z,951.36
2016-09-16T01:36:33.055Z,951.35
2016-09-16T01:37:33.057Z,951.35
2016-09-16T01:38:33.042Z,951.39
2016-09-16T01:39:33.043Z,951.4
2016-09-16T01:40:33.046Z,951.41
2016-09-16T01:41:33.031Z,951.38
2016-09-16T01:42:33.048Z,951.35
2016-09-16T01:43:33.025Z,951.38
2016-09-16T01:44:36.052Z,951.41
2016-09-16T01:45:33.031Z,951.37
2016-09-16T01:46:33.013Z,951.38
2016-09-16T01:47:33.004Z,951.4
2016-09-16T01:48:32.999Z,951.37
2016-09-16T01:49:33.004Z,951.4
2016-09-16T01:50:32.999Z,951.39
2016-09-16T01:51:32.993Z,951.38
2016-09-16T01:52:32.989Z,951.36
2016-09-16T01:53:32.982Z,951.38
2016-09-16T01:54:32.979Z,951.38
2016-09-16T01:55:32.976Z,951.39
2016-09-16T01:56:32.967Z,951.39
2016-09-16T01:57:32.964Z,951.4
2016-09-16T01:58:32.970Z,951.39
2016-09-16T01:59:32.955Z,951.37
2016-09-16T02:00:32.953Z,951.37
2016-09-16T02:01:32.947Z,951.39
2016-09-16T02:02:32.941Z,951.38
2016-09-16T02:03:32.939Z,951.36
2016-09-16T02:04:32.939Z,951.31
2016-09-16T02:05:32.928Z,951.34
2016-09-16T02:06:32.924Z,951.31
2016-09-16T02:07:32.931Z,951.3
2016-09-16T02:08:32.919Z,951.28
2016-09-16T02:09:32.910Z,951.33
2016-09-16T02:10:32.948Z,951.28
2016-09-16T02:11:33.108Z,951.31
2016-09-16T02:12:32.903Z,951.29
2016-09-16T02:13:32.897Z,951.27
2016-09-16T02:14:32.890Z,951.28
2016-09-16T02:15:32.883Z,951.29
2016-09-16T02:16:32.892Z,951.31
2016-09-16T02:17:32.878Z,951.31
2016-09-16T02:18:32.877Z,951.3
2016-09-16T02:19:32.871Z,951.33
2016-09-16T02:20:32.867Z,951.34
2016-09-16T02:21:32.860Z,951.34
2016-09-16T02:22:32.857Z,951.35
2016-09-16T02:23:32.851Z,951.35
2016-09-16T02:24:32.842Z,951.37
2016-09-16T02:25:32.850Z,951.38
2016-09-16T02:26:32.846Z,951.41
2016-09-16T02:27:32.849Z,951.35
2016-09-16T02:28:32.835Z,951.4
2016-09-16T02:29:32.828Z,951.39
2016-09-16T02:30:32.829Z,951.42
2016-09-16T02:31:32.823Z,951.45
2016-09-16T02:32:32.817Z,951.47
2016-09-16T02:33:32.808Z,951.46
2016-09-16T02:34:32.812Z,951.49
2016-09-16T02:35:32.809Z,951.52
2016-09-16T02:36:32.801Z,951.49
2016-09-16T02:37:32.791Z,951.52
2016-09-16T02:38:32.795Z,951.5
2016-09-16T02:39:32.777Z,951.55
2016-09-16T02:40:32.779Z,951.57
2016-09-16T02:41:32.771Z,951.58
2016-09-16T02:42:32.768Z,951.6
2016-09-16T02:43:32.786Z,951.6
2016-09-16T02:44:32.759Z,951.6
2016-09-16T02:45:32.755Z,951.61
2016-09-16T02:46:32.753Z,951.61
2016-09-16T02:47:32.945Z,951.56
2016-09-16T02:48:32.744Z,951.61
2016-09-16T02:49:32.737Z,951.56
2016-09-16T02:50:32.732Z,951.58
2016-09-16T02:51:32.725Z,951.58
2016-09-16T02:52:32.747Z,951.6
2016-09-16T02:53:32.715Z,951.58
2016-09-16T02:54:32.711Z,951.58
2016-09-16T02:55:32.712Z,951.56
2016-09-16T02:56:32.714Z,951.59
2016-09-16T02:57:32.698Z,951.58
2016-09-16T02:58:32.702Z,951.6
2016-09-16T02:59:32.698Z,951.63
2016-09-16T03:00:32.685Z,951.65
2016-09-16T03:01:32.686Z,951.63
2016-09-16T03:02:32.678Z,951.65
2016-09-16T03:03:32.673Z,951.64
2016-09-16T03:04:32.672Z,951.67
2016-09-16T03:05:32.684Z,951.65
2016-09-16T03:06:32.659Z,951.64
2016-09-16T03:07:32.659Z,951.67
2016-09-16T03:08:32.658Z,951.66
2016-09-16T03:09:32.648Z,951.67
2016-09-16T03:10:32.653Z,951.64
2016-09-16T03:11:32.635Z,951.64
2016-09-16T03:12:32.632Z,951.6
2016-09-16T03:13:32.632Z,951.57
2016-09-16T03:14:32.626Z,951.63
2016-09-16T03:15:32.619Z,951.65
2016-09-16T03:16:32.614Z,951.62
2016-09-16T03:17:32.610Z,951.63
2016-09-16T03:18:32.608Z,951.63
2016-09-16T03:19:32.601Z,951.69
2016-09-16T03:20:32.598Z,951.66
2016-09-16T03:21:32.594Z,951.67
2016-09-16T03:22:32.597Z,951.69
2016-09-16T03:23:32.585Z,951.72
2016-09-16T03:24:32.582Z,951.7
2016-09-16T03:25:32.582Z,951.64
2016-09-16T03:26:32.568Z,951.65
2016-09-16T03:27:32.572Z,951.64
2016-09-16T03:28:32.563Z,951.6
2016-09-16T03:29:32.558Z,951.61
2016-09-16T03:30:32.557Z,951.62
2016-09-16T03:31:32.556Z,951.61
2016-09-16T03:32:32.543Z,951.57
2016-09-16T03:33:32.539Z,951.56
2016-09-16T03:34:32.538Z,951.54
2016-09-16T03:35:32.535Z,951.58
2016-09-16T03:36:32.537Z,951.53
2016-09-16T03:37:32.541Z,951.53
2016-09-16T03:38:32.518Z,951.52
2016-09-16T03:39:32.518Z,951.54
2016-09-16T03:40:32.513Z,951.53
2016-09-16T03:41:32.504Z,951.5
2016-09-16T03:42:32.500Z,951.5
2016-09-16T03:43:32.493Z,951.49
2016-09-16T03:44:32.498Z,951.57
2016-09-16T03:45:32.491Z,951.53
2016-09-16T03:46:32.490Z,951.55
2016-09-16T03:47:32.487Z,951.53
2016-09-16T03:48:32.480Z,951.53
2016-09-16T03:49:32.470Z,951.54
2016-09-16T03:50:32.477Z,951.47
2016-09-16T03:51:32.460Z,951.51
2016-09-16T03:52:32.455Z,951.52
2016-09-16T03:53:32.451Z,951.51
2016-09-16T03:54:32.455Z,951.52
2016-09-16T03:55:32.441Z,951.52
2016-09-16T03:56:32.442Z,951.52
2016-09-16T03:57:32.439Z,951.48
2016-09-16T03:58:32.432Z,951.51
2016-09-16T03:59:32.427Z,951.48
2016-09-16T04:00:32.421Z,951.5
2016-09-16T04:01:32.413Z,951.47
2016-09-16T04:02:32.413Z,951.46
2016-09-16T04:03:32.408Z,951.48
2016-09-16T04:04:32.403Z,951.5
2016-09-16T04:05:32.400Z,951.48
2016-09-16T04:06:32.390Z,951.48
2016-09-16T04:07:32.385Z,951.51
2016-09-16T04:08:32.383Z,951.51
2016-09-16T04:09:32.381Z,951.52
2016-09-16T04:10:32.373Z,951.5
2016-09-16T04:11:32.369Z,951.47
2016-09-16T04:12:32.367Z,951.47
2016-09-16T04:13:32.367Z,951.43
2016-09-16T04:14:32.362Z,951.47
2016-09-16T04:15:32.352Z,951.48
2016-09-16T04:16:32.345Z,951.45
2016-09-16T04:17:32.341Z,951.45
2016-09-16T04:18:32.337Z,951.46
2016-09-16T04:19:32.341Z,951.45
2016-09-16T04:20:32.329Z,951.49
2016-09-16T04:21:32.339Z,951.48
2016-09-16T04:22:32.325Z,951.5
2016-09-16T04:23:32.325Z,951.5
2016-09-16T04:24:32.311Z,951.51
2016-09-16T04:25:32.315Z,951.53
2016-09-16T04:26:32.305Z,951.52
2016-09-16T04:27:32.299Z,951.52
2016-09-16T04:28:32.300Z,951.53
2016-09-16T04:29:32.290Z,951.49
2016-09-16T04:30:32.293Z,951.5
2016-09-16T04:31:32.284Z,951.52
2016-09-16T04:32:32.279Z,951.53
2016-09-16T04:33:32.269Z,951.52
2016-09-16T04:34:32.268Z,951.51
2016-09-16T04:35:32.264Z,951.5
2016-09-16T04:36:32.260Z,951.46
2016-09-16T04:37:32.258Z,951.51
2016-09-16T04:38:32.260Z,951.5
2016-09-16T04:39:32.245Z,951.44
2016-09-16T04:40:32.246Z,951.48
2016-09-16T04:41:32.235Z,951.51
2016-09-16T04:42:32.234Z,951.52
2016-09-16T04:43:32.227Z,951.56
2016-09-16T04:44:32.227Z,951.55
2016-09-16T04:45:32.216Z,951.61
2016-09-16T04:46:32.212Z,951.64
2016-09-16T04:47:32.210Z,951.63
2016-09-16T04:48:32.217Z,951.7
2016-09-16T04:49:32.201Z,951.73
2016-09-16T04:50:32.199Z,951.72
2016-09-16T04:51:32.194Z,951.75
2016-09-16T04:52:32.191Z,951.68
2016-09-16T04:53:32.185Z,951.68
2016-09-16T04:54:32.188Z,951.68
2016-09-16T04:55:32.172Z,951.68
2016-09-16T04:56:32.173Z,951.66
2016-09-16T04:57:32.173Z,951.64
2016-09-16T04:58:32.164Z,951.61
2016-09-16T04:59:32.153Z,951.66
2016-09-16T05:00:32.153Z,951.7
2016-09-16T05:01:32.149Z,951.68
2016-09-16T05:02:32.140Z,951.75
2016-09-16T05:03:32.136Z,951.73
2016-09-16T05:04:32.140Z,951.74
2016-09-16T05:05:32.130Z,951.84
2016-09-16T05:06:32.122Z,951.76
2016-09-16T05:07:32.123Z,951.81
2016-09-16T05:08:32.124Z,951.76
2016-09-16T05:09:32.125Z,951.77
2016-09-16T05:10:32.105Z,951.74
2016-09-16T05:11:32.106Z,951.83
2016-09-16T05:12:32.104Z,951.83
2016-09-16T05:13:32.094Z,951.8
2016-09-16T05:14:32.108Z,951.81
2016-09-16T05:15:32.100Z,951.82
2016-09-16T05:16:32.078Z,951.82
2016-09-16T05:17:32.073Z,951.86
2016-09-16T05:18:32.091Z,951.88
2016-09-16T05:19:32.081Z,951.9
2016-09-16T05:20:32.063Z,951.89
2016-09-16T05:21:32.058Z,951.89
2016-09-16T05:22:32.053Z,951.9
2016-09-16T05:23:32.057Z,951.92
2016-09-16T05:24:32.047Z,951.95
2016-09-16T05:25:32.040Z,951.94
2016-09-16T05:26:32.042Z,951.91
2016-09-16T05:27:32.035Z,951.88
2016-09-16T05:28:32.027Z,951.9
2016-09-16T05:29:32.019Z,951.87
2016-09-16T05:30:32.017Z,951.9
2016-09-16T05:31:32.031Z,951.89
2016-09-16T05:32:32.014Z,951.93
2016-09-16T05:33:32.006Z,951.92
2016-09-16T05:34:31.997Z,951.91
2016-09-16T05:35:32.005Z,951.9
2016-09-16T05:36:31.987Z,951.9
2016-09-16T05:37:31.996Z,951.89
2016-09-16T05:38:31.977Z,951.9
2016-09-16T05:39:31.973Z,951.89
2016-09-16T05:40:31.981Z,951.88
2016-09-16T05:41:31.964Z,951.89
2016-09-16T05:42:31.961Z,951.92
2016-09-16T05:43:31.955Z,951.92
2016-09-16T05:44:31.953Z,951.94
2016-09-16T05:45:31.949Z,951.98
2016-09-16T05:46:31.954Z,951.99
2016-09-16T05:47:31.939Z,952.03
2016-09-16T05:48:31.937Z,952.04
2016-09-16T05:49:31.938Z,952.05
2016-09-16T05:50:31.924Z,952.03
2016-09-16T05:51:31.924Z,952.02
2016-09-16T05:52:31.914Z,952.01
2016-09-16T05:53:31.909Z,952.04
2016-09-16T05:54:31.908Z,952.01
2016-09-16T05:55:31.907Z,952.06
2016-09-16T05:56:31.907Z,952.06
2016-09-16T05:57:31.898Z,952.06
2016-09-16T05:58:31.896Z,952.07
2016-09-16T05:59:31.886Z,952.08
2016-09-16T06:00:31.885Z,952.14
2016-09-16T06:01:31.873Z,952.09
2016-09-16T06:02:31.870Z,952.12
2016-09-16T06:03:31.876Z,952.12
2016-09-16T06:04:31.871Z,952.17
2016-09-16T06:05:31.866Z,952.18
2016-09-16T06:06:31.863Z,952.16
2016-09-16T06:07:31.852Z,952.19
2016-09-16T06:08:31.846Z,952.22
2016-09-16T06:09:31.847Z,952.24
2016-09-16T06:10:31.838Z,952.2
2016-09-16T06:11:31.830Z,952.22
2016-09-16T06:12:31.828Z,952.21
2016-09-16T06:13:31.825Z,952.18
2016-09-16T06:14:31.821Z,952.18
2016-09-16T06:15:31.822Z,952.2
2016-09-16T06:16:31.826Z,952.2
2016-09-16T06:17:31.817Z,952.19
2016-09-16T06:18:31.819Z,952.19
2016-09-16T06:19:31.805Z,952.19
2016-09-16T06:20:31.802Z,952.17
2016-09-16T06:21:31.790Z,952.15
2016-09-16T06:22:31.787Z,952.14
2016-09-16T06:23:31.783Z,952.13
2016-09-16T06:24:31.786Z,952.15
2016-09-16T06:25:31.785Z,952.1
2016-09-16T06:26:31.781Z,952.08
2016-09-16T06:27:31.770Z,952.07
2016-09-16T06:28:31.770Z,952.09
2016-09-16T06:29:31.763Z,952.09
2016-09-16T06:30:31.762Z,952.03
2016-09-16T06:31:31.754Z,952.05
2016-09-16T06:32:31.751Z,952.07
2016-09-16T06:33:31.750Z,952.05
2016-09-16T06:34:31.741Z,952.04
2016-09-16T06:35:31.739Z,952.06
2016-09-16T06:36:31.735Z,952.04
2016-09-16T06:37:31.730Z,952.05
2016-09-16T06:38:31.731Z,952.05
2016-09-16T06:39:31.726Z,952.01
2016-09-16T06:40:31.722Z,952.07
2016-09-16T06:41:31.723Z,952.07
2016-09-16T06:42:31.711Z,952.09
2016-09-16T06:43:31.712Z,952.1
2016-09-16T06:44:31.709Z,952.12
2016-09-16T06:45:31.706Z,952.11
2016-09-16T06:46:31.703Z,952.13
2016-09-16T06:47:31.698Z,952.14
2016-09-16T06:48:31.690Z,952.12
2016-09-16T06:49:31.689Z,952.16
2016-09-16T06:50:31.687Z,952.21
2016-09-16T06:51:31.683Z,952.21
2016-09-16T06:52:31.682Z,952.22
2016-09-16T06:53:31.675Z,952.25
2016-09-16T06:54:31.671Z,952.23
2016-09-16T06:55:31.679Z,952.21
2016-09-16T06:56:31.665Z,952.24
2016-09-16T06:57:31.662Z,952.27
2016-09-16T06:58:31.667Z,952.26
2016-09-16T06:59:31.660Z,952.29
2016-09-16T07:00:31.660Z,952.31
2016-09-16T07:01:31.650Z,952.34
2016-09-16T07:02:31.654Z,952.32
2016-09-16T07:03:31.650Z,952.36
2016-09-16T07:04:31.641Z,952.35
2016-09-16T07:05:31.643Z,952.32
2016-09-16T07:06:31.638Z,952.33
2016-09-16T07:07:31.641Z,952.35
2016-09-16T07:08:31.631Z,952.35
2016-09-16T07:09:31.627Z,952.4
2016-09-16T07:10:31.628Z,952.4
2016-09-16T07:11:31.622Z,952.4
2016-09-16T07:12:31.622Z,952.42
2016-09-16T07:13:31.631Z,952.41
2016-09-16T07:14:31.613Z,952.43
2016-09-16T07:15:31.612Z,952.39
2016-09-16T07:16:31.607Z,952.34
2016-09-16T07:17:31.608Z,952.33
2016-09-16T07:18:31.604Z,952.3
2016-09-16T07:19:31.601Z,952.29
2016-09-16T07:20:31.598Z,952.25
2016-09-16T07:21:31.596Z,952.23
2016-09-16T07:22:31.593Z,952.28
2016-09-16T07:23:31.603Z,952.26
2016-09-16T07:24:31.592Z,952.25
2016-09-16T07:25:31.588Z,952.26
2016-09-16T07:26:31.598Z,952.28
2016-09-16T07:27:31.585Z,952.31
2016-09-16T07:28:31.579Z,952.34
2016-09-16T07:29:31.577Z,952.34
2016-09-16T07:30:31.578Z,952.35
2016-09-16T07:31:31.572Z,952.37
2016-09-16T07:32:31.580Z,952.41
2016-09-16T07:33:31.573Z,952.43
2016-09-16T07:34:31.574Z,952.41
2016-09-16T07:35:31.572Z,952.41
2016-09-16T07:36:31.569Z,952.43
2016-09-16T07:37:31.562Z,952.45
2016-09-16T07:38:31.566Z,952.46
2016-09-16T07:39:31.557Z,952.43
2016-09-16T07:40:31.561Z,952.41
2016-09-16T07:41:31.555Z,952.38
2016-09-16T07:42:31.551Z,952.41
2016-09-16T07:43:31.582Z,952.39
2016-09-16T07:44:31.551Z,952.36
2016-09-16T07:45:31.544Z,952.4
2016-09-16T07:46:31.542Z,952.43
2016-09-16T07:47:31.542Z,952.43
2016-09-16T07:48:31.539Z,952.44
2016-09-16T07:49:31.547Z,952.43
2016-09-16T07:50:31.539Z,952.46
2016-09-16T07:51:31.535Z,952.5
2016-09-16T07:52:31.533Z,952.49
2016-09-16T07:53:31.531Z,952.52
2016-09-16T07:54:31.532Z,952.5
2016-09-16T07:55:31.531Z,952.5
2016-09-16T07:56:31.533Z,952.49
2016-09-16T07:57:31.527Z,952.48
2016-09-16T07:58:31.526Z,952.49
2016-09-16T07:59:31.523Z,952.48
2016-09-16T08:00:31.521Z,952.44
2016-09-16T08:01:31.524Z,952.44
2016-09-16T08:02:31.529Z,952.45
2016-09-16T08:03:31.525Z,952.45
2016-09-16T08:04:31.532Z,952.44
2016-09-16T08:05:31.524Z,952.45
2016-09-16T08:06:31.523Z,952.45
2016-09-16T08:07:31.513Z,952.46
2016-09-16T08:08:31.516Z,952.44
2016-09-16T08:09:31.521Z,952.49
2016-09-16T08:10:31.519Z,952.5
2016-09-16T08:11:31.510Z,952.53
2016-09-16T08:12:31.509Z,952.52
2016-09-16T08:13:31.510Z,952.49
2016-09-16T08:14:31.513Z,952.47
2016-09-16T08:15:31.518Z,952.48
2016-09-16T08:16:31.511Z,952.43
2016-09-16T08:17:31.510Z,952.43
2016-09-16T08:18:31.505Z,952.4
2016-09-16T08:19:31.503Z,952.45
2016-09-16T08:20:31.505Z,952.45
2016-09-16T08:21:31.506Z,952.45
2016-09-16T08:22:31.508Z,952.44
2016-09-16T08:23:31.504Z,952.46
2016-09-16T08:24:31.505Z,952.48
2016-09-16T08:25:31.508Z,952.5
2016-09-16T08:26:31.497Z,952.47
2016-09-16T08:27:31.504Z,952.47
2016-09-16T08:28:31.501Z,952.51
2016-09-16T08:29:31.498Z,952.5
2016-09-16T08:30:31.507Z,952.46
2016-09-16T08:31:31.498Z,952.46
2016-09-16T08:32:31.501Z,952.43
2016-09-16T08:33:31.496Z,952.4
2016-09-16T08:34:31.496Z,952.41
2016-09-16T08:35:31.497Z,952.34
2016-09-16T08:36:31.502Z,952.36
2016-09-16T08:37:31.500Z,952.36
2016-09-16T08:38:31.493Z,952.33
2016-09-16T08:39:31.494Z,952.34
2016-09-16T08:40:31.493Z,952.33
2016-09-16T08:41:31.503Z,952.35
2016-09-16T08:42:31.496Z,952.34
2016-09-16T08:43:31.494Z,952.33
2016-09-16T08:44:31.492Z,952.31
2016-09-16T08:45:31.491Z,952.34
2016-09-16T08:46:31.490Z,952.35
2016-09-16T08:47:31.492Z,952.38
2016-09-16T08:48:31.492Z,952.35
2016-09-16T08:49:31.489Z,952.34
2016-09-16T08:50:31.493Z,952.3
2016-09-16T08:51:31.491Z,952.3
2016-09-16T08:52:31.490Z,952.31
2016-09-16T08:53:31.499Z,952.25
2016-09-16T08:54:31.488Z,952.26
2016-09-16T08:55:31.490Z,952.28
2016-09-16T08:56:31.488Z,952.29
2016-09-16T08:57:31.486Z,952.33
2016-09-16T08:58:31.487Z,952.33
2016-09-16T08:59:31.487Z,952.35
2016-09-16T09:00:31.494Z,952.34
2016-09-16T09:01:31.497Z,952.35
2016-09-16T09:02:31.488Z,952.34
2016-09-16T09:03:31.486Z,952.32
2016-09-16T09:04:31.500Z,952.3
2016-09-16T09:05:31.490Z,952.3
2016-09-16T09:06:31.487Z,952.26
2016-09-16T09:07:31.487Z,952.26
2016-09-16T09:08:31.487Z,952.25
2016-09-16T09:09:31.491Z,952.27
2016-09-16T09:10:31.562Z,952.3
2016-09-16T09:11:31.488Z,952.3
2016-09-16T09:12:31.488Z,952.35
2016-09-16T09:13:31.487Z,952.37
2016-09-16T09:14:31.489Z,952.37
2016-09-16T09:15:31.489Z,952.37
2016-09-16T09:16:31.491Z,952.36
2016-09-16T09:17:31.487Z,952.39
2016-09-16T09:18:31.490Z,952.37
2016-09-16T09:19:31.490Z,952.4
2016-09-16T09:20:31.493Z,952.38
2016-09-16T09:21:31.491Z,952.39
2016-09-16T09:22:31.513Z,952.37
2016-09-16T09:23:31.493Z,952.35
2016-09-16T09:24:31.499Z,952.31
2016-09-16T09:25:31.499Z,952.31
2016-09-16T09:26:31.502Z,952.32
2016-09-16T09:27:31.499Z,952.28
2016-09-16T09:28:31.500Z,952.34
2016-09-16T09:29:31.496Z,952.29
2016-09-16T09:30:31.503Z,952.32
2016-09-16T09:31:31.498Z,952.29
2016-09-16T09:32:31.500Z,952.35
2016-09-16T09:33:31.499Z,952.3
2016-09-16T09:34:31.504Z,952.29
2016-09-16T09:35:31.502Z,952.33
2016-09-16T09:36:31.508Z,952.31
2016-09-16T09:37:31.508Z,952.29
2016-09-16T09:38:31.512Z,952.33
2016-09-16T09:39:31.509Z,952.3
2016-09-16T09:40:31.509Z,952.3
2016-09-16T09:41:31.510Z,952.25
2016-09-16T09:42:31.513Z,952.23
2016-09-16T09:43:31.513Z,952.28
2016-09-16T09:44:31.512Z,952.26
2016-09-16T09:45:31.517Z,952.28
2016-09-16T09:46:31.519Z,952.27
2016-09-16T09:47:31.524Z,952.29
2016-09-16T09:48:31.522Z,952.3
2016-09-16T09:49:31.519Z,952.3
2016-09-16T09:50:31.519Z,952.25
2016-09-16T09:51:31.524Z,952.29
2016-09-16T09:52:31.525Z,952.26
2016-09-16T09:53:31.521Z,952.24
2016-09-16T09:54:31.532Z,952.22
2016-09-16T09:55:31.522Z,952.21
2016-09-16T09:56:31.526Z,952.21
2016-09-16T09:57:31.533Z,952.18
2016-09-16T09:58:31.530Z,952.18
2016-09-16T09:59:31.534Z,952.18
2016-09-16T10:00:31.529Z,952.16
2016-09-16T10:01:31.543Z,952.13
2016-09-16T10:02:31.533Z,952.11
2016-09-16T10:03:31.545Z,952.13
2016-09-16T10:04:31.534Z,952.12
2016-09-16T10:05:31.536Z,952.12
2016-09-16T10:06:31.537Z,952.12
2016-09-16T10:07:31.539Z,952.09
2016-09-16T10:08:31.540Z,952.11
2016-09-16T10:09:31.543Z,952.1
2016-09-16T10:10:31.550Z,952.13
2016-09-16T10:11:31.544Z,952.11
2016-09-16T10:12:31.547Z,952.11
2016-09-16T10:13:31.547Z,952.15
2016-09-16T10:14:31.550Z,952.15
2016-09-16T10:15:31.556Z,952.14
2016-09-16T10:16:31.553Z,952.19
2016-09-16T10:17:31.554Z,952.17
2016-09-16T10:18:31.562Z,952.15
2016-09-16T10:19:31.567Z,952.16
2016-09-16T10:20:31.559Z,952.14
2016-09-16T10:21:31.559Z,952.13
2016-09-16T10:22:31.562Z,952.08
2016-09-16T10:23:31.560Z,952.08
2016-09-16T10:24:31.561Z,952.08
2016-09-16T10:25:31.565Z,952.03
2016-09-16T10:26:31.565Z,952.02
2016-09-16T10:27:31.565Z,952
2016-09-16T10:28:31.568Z,952
2016-09-16T10:29:31.574Z,952.02
2016-09-16T10:30:31.570Z,952.02
2016-09-16T10:31:31.583Z,952
2016-09-16T10:32:31.575Z,951.98
2016-09-16T10:33:31.575Z,952.02
2016-09-16T10:34:31.580Z,952
2016-09-16T10:35:31.581Z,952.03
2016-09-16T10:36:31.580Z,952.06
2016-09-16T10:37:31.580Z,952.04
2016-09-16T10:38:31.590Z,952.06
2016-09-16T10:39:31.591Z,952.06
2016-09-16T10:40:31.590Z,952.09
2016-09-16T10:41:31.595Z,952.06
2016-09-16T10:42:31.589Z,952.09
2016-09-16T10:43:31.591Z,952.06
2016-09-16T10:44:31.594Z,952.13
2016-09-16T10:45:31.594Z,952.12
2016-09-16T10:46:31.599Z,952.07
2016-09-16T10:47:31.599Z,952.07
2016-09-16T10:48:31.602Z,952.08
2016-09-16T10:49:31.604Z,952.05
2016-09-16T10:50:31.606Z,952.05
2016-09-16T10:51:31.610Z,952.1
2016-09-16T10:52:31.607Z,952.06
2016-09-16T10:53:31.611Z,952.07
2016-09-16T10:54:31.616Z,952.09
2016-09-16T10:55:31.622Z,952.08
2016-09-16T10:56:31.619Z,952.12
2016-09-16T10:57:31.623Z,952.16
2016-09-16T10:58:31.619Z,952.1
2016-09-16T10:59:31.621Z,952.16
2016-09-16T11:00:31.624Z,952.09
2016-09-16T11:01:31.629Z,952.14
2016-09-16T11:02:31.629Z,952.1
2016-09-16T11:03:31.634Z,952.06
2016-09-16T11:04:31.633Z,952.09
2016-09-16T11:05:31.638Z,952.03
2016-09-16T11:06:31.639Z,952.01
2016-09-16T11:07:31.642Z,952.04
2016-09-16T11:08:31.643Z,952.04
2016-09-16T11:09:31.662Z,952.06
2016-09-16T11:10:31.653Z,952.06
2016-09-16T11:11:31.654Z,952.09
2016-09-16T11:12:31.654Z,952.05
2016-09-16T11:13:31.655Z,952.07
2016-09-16T11:14:31.661Z,952.04
2016-09-16T11:15:31.665Z,952.04
2016-09-16T11:16:31.671Z,952.06
2016-09-16T11:17:31.671Z,952.04
2016-09-16T11:18:31.679Z,952.06
2016-09-16T11:19:31.671Z,952.03
2016-09-16T11:20:31.673Z,952.07
2016-09-16T11:21:31.671Z,952.11
2016-09-16T11:22:31.678Z,952.07
2016-09-16T11:23:31.679Z,952.06
2016-09-16T11:24:31.684Z,952.03
2016-09-16T11:25:31.692Z,952.02
2016-09-16T11:26:31.684Z,952.03
2016-09-16T11:27:31.692Z,952
2016-09-16T11:28:31.688Z,951.98
2016-09-16T11:29:31.699Z,951.96
2016-09-16T11:30:31.696Z,951.91
2016-09-16T11:31:31.898Z,951.93
2016-09-16T11:32:31.695Z,952
2016-09-16T11:33:31.698Z,951.97
2016-09-16T11:34:31.698Z,952.03
2016-09-16T11:35:31.702Z,951.94
2016-09-16T11:36:31.707Z,951.98
2016-09-16T11:37:31.714Z,951.95
2016-09-16T11:38:31.719Z,951.96
2016-09-16T11:39:31.714Z,951.95
2016-09-16T11:40:31.711Z,951.95
2016-09-16T11:41:31.713Z,951.94
2016-09-16T11:42:31.715Z,951.95
2016-09-16T11:43:31.716Z,951.94
2016-09-16T11:44:31.727Z,951.93
2016-09-16T11:45:31.717Z,951.93
2016-09-16T11:46:31.719Z,951.94
2016-09-16T11:47:31.727Z,951.94
2016-09-16T11:48:31.725Z,951.92
2016-09-16T11:49:31.737Z,951.96
2016-09-16T11:50:31.732Z,951.93
2016-09-16T11:51:31.728Z,951.96
2016-09-16T11:52:31.733Z,951.95
2016-09-16T11:53:31.735Z,951.9
2016-09-16T11:54:31.740Z,951.89
2016-09-16T11:55:31.743Z,951.89
2016-09-16T11:56:31.746Z,951.83
2016-09-16T11:57:31.751Z,951.81
2016-09-16T11:58:31.745Z,951.79
2016-09-16T11:59:31.742Z,951.79
2016-09-16T12:00:31.745Z,951.78
2016-09-16T12:01:31.747Z,951.76
2016-09-16T12:02:31.749Z,951.76
2016-09-16T12:03:31.763Z,951.74
2016-09-16T12:04:31.756Z,951.8
2016-09-16T12:05:31.756Z,951.76
2016-09-16T12:06:31.754Z,951.76
2016-09-16T12:07:31.765Z,951.76
2016-09-16T12:08:31.766Z,951.71
2016-09-16T12:09:31.767Z,951.74
2016-09-16T12:10:31.761Z,951.74
2016-09-16T12:11:31.767Z,951.76
2016-09-16T12:12:31.766Z,951.77
2016-09-16T12:13:31.770Z,951.77
2016-09-16T12:14:31.774Z,951.76
2016-09-16T12:15:31.779Z,951.71
2016-09-16T12:16:32.053Z,951.73
2016-09-16T12:17:31.775Z,951.73
2016-09-16T12:18:31.778Z,951.7
2016-09-16T12:19:31.784Z,951.66
2016-09-16T12:20:31.783Z,951.63
2016-09-16T12:21:31.778Z,951.58
2016-09-16T12:22:31.782Z,951.55
2016-09-16T12:23:31.782Z,951.56
2016-09-16T12:24:31.786Z,951.55
2016-09-16T12:25:31.788Z,951.54
2016-09-16T12:26:31.789Z,951.62
2016-09-16T12:27:31.801Z,951.66
2016-09-16T12:28:31.792Z,951.62
2016-09-16T12:29:31.796Z,951.66
2016-09-16T12:30:31.796Z,951.65
2016-09-16T12:31:31.794Z,951.63